createdAt,value
2023-05-10T00:01:28.305Z,2.65
2023-05-10T00:04:31.640Z,2.70
2023-05-10T00:07:36.591Z,2.73
2023-05-10T00:10:39.977Z,2.65
2023-05-10T00:13:43.030Z,3.00
2023-05-10T00:16:46.434Z,2.45
2023-05-10T00:19:49.831Z,2.57
2023-05-10T00:22:54.288Z,2.93
2023-05-10T00:25:58.031Z,3.08
2023-05-10T00:29:01.392Z,3.08
2023-05-10T00:32:05.042Z,2.50
2023-05-10T00:35:08.924Z,2.40
2023-05-10T00:38:13.278Z,3.33
2023-05-10T00:41:16.679Z,2.60
2023-05-10T00:44:20.345Z,2.90
2023-05-10T00:47:23.906Z,2.42
2023-05-10T00:50:26.951Z,3.15
2023-05-10T00:53:33.648Z,2.78
2023-05-10T00:56:36.829Z,3.08
2023-05-10T00:59:39.946Z,2.85
2023-05-10T01:02:43.749Z,2.83
2023-05-10T01:05:46.813Z,3.08
2023-05-10T01:08:51.794Z,3.05
2023-05-10T01:11:55.949Z,3.00
2023-05-10T01:14:59.898Z,2.78
2023-05-10T01:18:04.181Z,3.10
2023-05-10T01:21:19.332Z,3.10
2023-05-10T01:25:09.225Z,2.95
2023-05-10T01:28:40.196Z,3.42
2023-05-10T01:32:09.613Z,2.85
2023-05-10T01:35:21.158Z,3.15
2023-05-10T01:38:32.620Z,3.05
2023-05-10T01:41:47.160Z,3.25
2023-05-10T01:48:07.747Z,3.58
2023-05-10T01:51:12.831Z,3.53
2023-05-10T01:54:19.527Z,3.85
2023-05-10T01:57:27.634Z,3.50
2023-05-10T02:00:31.303Z,3.45
2023-05-10T02:03:38.378Z,3.15
2023-05-10T02:06:43.038Z,3.00
2023-05-10T02:09:48.638Z,3.17
2023-05-10T02:12:52.772Z,3.30
2023-05-10T02:19:03.425Z,3.33
2023-05-10T02:22:09.060Z,3.85
2023-05-10T02:25:15.170Z,3.58
2023-05-10T02:28:19.770Z,3.00
2023-05-10T02:31:24.438Z,3.45
2023-05-10T02:34:29.959Z,3.03
2023-05-10T02:37:34.208Z,3.08
2023-05-10T02:40:38.737Z,3.30
2023-05-10T02:43:42.855Z,3.63
2023-05-10T02:46:46.649Z,3.05
2023-05-10T02:49:51.155Z,3.60
2023-05-10T02:52:58.135Z,3.17
2023-05-10T02:56:04.790Z,3.50
2023-05-10T02:59:07.953Z,3.60
2023-05-10T03:02:11.392Z,3.75
2023-05-10T03:05:15.810Z,3.43
2023-05-10T03:08:19.052Z,2.92
2023-05-10T03:11:35.164Z,3.35
2023-05-10T03:14:50.935Z,3.47
2023-05-10T03:17:57.641Z,3.90
2023-05-10T03:21:06.635Z,3.08
2023-05-10T03:24:12.922Z,3.40
2023-05-10T03:27:17.129Z,3.38
2023-05-10T03:30:21.559Z,3.90
2023-05-10T03:33:24.640Z,3.72
2023-05-10T03:36:30.229Z,3.08
2023-05-10T03:39:56.546Z,3.67
2023-05-10T03:42:59.830Z,3.28
2023-05-10T03:46:04.151Z,3.88
2023-05-10T03:49:07.429Z,3.75
2023-05-10T03:52:10.474Z,3.43
2023-05-10T03:55:15.247Z,3.35
2023-05-10T03:58:19.140Z,3.72
2023-05-10T04:01:22.161Z,3.47
2023-05-10T04:04:25.365Z,3.53
2023-05-10T04:07:28.412Z,3.85
2023-05-10T04:10:33.299Z,3.60
2023-05-10T04:13:36.484Z,4.03
2023-05-10T04:16:39.676Z,3.08
2023-05-10T04:19:42.714Z,3.58
2023-05-10T04:22:45.842Z,3.20
2023-05-10T04:25:50.836Z,3.90
2023-05-10T04:28:53.980Z,4.38
2023-05-10T04:31:57.568Z,3.75
2023-05-10T04:35:00.689Z,3.72
2023-05-10T04:38:03.816Z,3.10
2023-05-10T04:41:09.708Z,3.75
2023-05-10T04:44:12.918Z,3.65
2023-05-10T04:47:17.144Z,3.70
2023-05-10T04:53:23.113Z,3.05
2023-05-10T04:56:28.079Z,3.53
2023-05-10T04:59:31.165Z,3.58
2023-05-10T05:02:34.528Z,3.65
2023-05-10T05:05:37.885Z,3.40
2023-05-10T05:08:41.190Z,3.53
2023-05-10T05:11:46.139Z,3.28
2023-05-10T05:14:49.234Z,4.03
2023-05-10T05:17:52.464Z,3.10
2023-05-10T05:20:55.682Z,3.45
2023-05-10T05:23:58.733Z,3.55
2023-05-10T05:27:03.198Z,3.65
2023-05-10T05:30:08.161Z,3.92
2023-05-10T05:33:12.459Z,3.20
2023-05-10T05:36:15.907Z,3.60
2023-05-10T05:39:18.950Z,3.73
2023-05-10T05:42:23.468Z,3.70
2023-05-10T05:45:26.551Z,3.13
2023-05-10T05:48:31.582Z,3.00
2023-05-10T05:51:35.868Z,4.15
2023-05-10T05:54:38.918Z,3.42
2023-05-10T05:57:43.227Z,3.83
2023-05-10T06:00:46.382Z,3.53
2023-05-10T06:03:50.974Z,3.40
2023-05-10T06:06:55.858Z,3.22
2023-05-10T06:09:59.084Z,2.95
2023-05-10T06:13:03.723Z,3.50
2023-05-10T06:16:07.525Z,3.33
2023-05-10T06:19:10.857Z,3.38
2023-05-10T06:22:14.704Z,2.87
2023-05-10T06:25:19.167Z,3.13
2023-05-10T06:28:23.616Z,3.88
2023-05-10T06:31:26.771Z,3.92
2023-05-10T06:34:29.929Z,3.50
2023-05-10T06:37:33.030Z,3.58
2023-05-10T06:40:36.908Z,4.53
2023-05-10T06:43:42.289Z,3.92
2023-05-10T06:46:45.265Z,3.88
2023-05-10T06:49:48.664Z,3.78
2023-05-10T06:52:53.062Z,2.83
2023-05-10T06:55:56.666Z,3.03
2023-05-10T06:59:01.568Z,3.87
2023-05-10T07:02:04.608Z,3.88
2023-05-10T07:05:08.434Z,3.80
2023-05-10T07:08:11.475Z,3.30
2023-05-10T07:11:14.598Z,3.83
2023-05-10T07:14:19.044Z,3.63
2023-05-10T07:17:22.448Z,3.17
2023-05-10T07:20:25.550Z,3.77
2023-05-10T07:23:28.479Z,3.95
2023-05-10T07:26:31.729Z,3.42
2023-05-10T07:29:36.390Z,3.43
2023-05-10T07:32:40.425Z,3.88
2023-05-10T07:38:47.045Z,3.67
2023-05-10T07:41:49.964Z,3.53
2023-05-10T07:44:54.564Z,3.63
2023-05-10T07:47:57.595Z,3.20
2023-05-10T07:51:01.127Z,3.20
2023-05-10T07:54:04.441Z,4.03
2023-05-10T07:57:07.569Z,3.40
2023-05-10T08:00:19.706Z,3.58
2023-05-10T08:03:22.826Z,3.63
2023-05-10T08:09:31.555Z,3.63
2023-05-10T08:12:34.641Z,3.93
2023-05-10T08:15:39.230Z,3.63
2023-05-10T08:18:42.640Z,3.38
2023-05-10T08:21:45.978Z,3.93
2023-05-10T08:24:49.062Z,3.80
2023-05-10T08:27:52.365Z,4.13
2023-05-10T08:30:57.125Z,3.37
2023-05-10T08:34:01.199Z,3.92
2023-05-10T08:37:04.186Z,3.20
2023-05-10T08:40:08.557Z,3.90
2023-05-10T08:43:13.785Z,3.58
2023-05-10T08:46:20.606Z,3.47
2023-05-10T08:49:24.644Z,3.80
2023-05-10T08:52:31.690Z,4.28
2023-05-10T08:55:35.136Z,3.03
2023-05-10T08:58:38.451Z,3.47
2023-05-10T09:01:45.409Z,3.60
2023-05-10T09:04:50.040Z,4.22
2023-05-10T09:07:54.072Z,3.83
2023-05-10T09:10:58.250Z,3.90
2023-05-10T09:17:06.576Z,3.42
2023-05-10T09:20:10.629Z,4.28
2023-05-10T09:23:13.689Z,3.75
2023-05-10T09:26:17.012Z,4.32
2023-05-10T09:29:20.407Z,3.60
2023-05-10T09:32:38.159Z,3.07
2023-05-10T09:35:41.628Z,4.28
2023-05-10T09:38:49.361Z,3.53
2023-05-10T09:41:53.795Z,3.78
2023-05-10T09:45:02.432Z,4.07
2023-05-10T09:48:07.943Z,4.03
2023-05-10T09:51:11.141Z,3.80
2023-05-10T09:54:16.121Z,3.95
2023-05-10T09:57:22.709Z,3.88
2023-05-10T10:00:25.950Z,3.45
2023-05-10T10:03:30.949Z,3.57
2023-05-10T10:06:38.878Z,3.65
2023-05-10T10:09:42.173Z,3.33
2023-05-10T10:12:45.980Z,3.70
2023-05-10T10:15:52.011Z,4.05
2023-05-10T10:18:57.645Z,4.03
2023-05-10T10:22:01.380Z,4.43
2023-05-10T10:25:05.893Z,3.92
2023-05-10T10:28:22.600Z,4.00
2023-05-10T10:31:34.375Z,3.60
2023-05-10T10:34:41.443Z,4.07
2023-05-10T10:37:48.962Z,3.60
2023-05-10T10:41:04.429Z,4.22
2023-05-10T10:44:28.118Z,4.00
2023-05-10T10:47:34.223Z,4.35
2023-05-10T10:50:48.089Z,3.85
2023-05-10T10:53:51.363Z,4.63
2023-05-10T10:57:12.736Z,4.40
2023-05-10T11:00:24.800Z,3.88
2023-05-10T11:03:29.892Z,4.25
2023-05-10T11:06:35.642Z,4.30
2023-05-10T11:09:41.696Z,3.38
2023-05-10T11:12:53.960Z,3.88
2023-05-10T11:15:58.533Z,4.00
2023-05-10T11:19:04.568Z,3.85
2023-05-10T11:22:16.150Z,4.03
2023-05-10T11:25:19.222Z,3.80
2023-05-10T11:28:23.476Z,3.90
2023-05-10T11:31:28.096Z,3.23
2023-05-10T11:34:34.489Z,3.95
2023-05-10T11:37:42.162Z,3.47
2023-05-10T11:40:45.803Z,3.50
2023-05-10T11:43:49.871Z,3.70
2023-05-10T11:46:54.165Z,3.92
2023-05-10T11:49:57.245Z,3.33
2023-05-10T11:53:01.915Z,2.85
2023-05-10T11:56:06.141Z,3.28
2023-05-10T12:02:13.441Z,3.30
2023-05-10T12:05:17.044Z,3.93
2023-05-10T12:08:24.787Z,4.00
2023-05-10T12:11:29.043Z,3.47
2023-05-10T12:14:36.400Z,3.67
2023-05-10T12:17:41.946Z,3.65
2023-05-10T12:20:46.371Z,3.28
2023-05-10T12:23:52.544Z,3.80
2023-05-10T12:26:56.487Z,3.20
2023-05-10T12:30:01.254Z,3.45
2023-05-10T12:33:09.420Z,3.60
2023-05-10T12:36:14.536Z,3.28
2023-05-10T12:39:18.906Z,2.78
2023-05-10T12:42:21.952Z,3.70
2023-05-10T12:45:26.112Z,3.55
2023-05-10T12:48:29.710Z,3.25
2023-05-10T12:51:32.812Z,3.22
2023-05-10T12:54:37.168Z,3.10
2023-05-10T12:57:40.365Z,3.35
2023-05-10T13:00:44.681Z,3.58
2023-05-10T13:03:47.789Z,4.00
2023-05-10T13:06:50.926Z,3.33
2023-05-10T13:09:55.439Z,3.63
2023-05-10T13:12:58.632Z,3.67
2023-05-10T13:19:05.691Z,2.70
2023-05-10T13:22:08.753Z,3.00
2023-05-10T13:25:13.362Z,3.10
2023-05-10T13:28:16.410Z,2.78
2023-05-10T13:31:19.715Z,2.60
2023-05-10T13:34:22.786Z,3.00
2023-05-10T13:37:25.730Z,3.13
2023-05-10T13:40:30.558Z,3.75
2023-05-10T13:43:33.643Z,2.72
2023-05-10T13:46:36.886Z,2.83
2023-05-10T13:49:40.285Z,3.00
2023-05-10T13:52:43.398Z,2.57
2023-05-10T13:55:48.386Z,2.50
2023-05-10T13:58:51.298Z,2.70
2023-05-10T14:01:54.754Z,2.40
2023-05-10T14:04:58.239Z,2.47
2023-05-10T14:08:01.666Z,2.90
2023-05-10T14:11:06.592Z,2.43
2023-05-10T14:14:10.228Z,2.38
2023-05-10T14:17:13.405Z,2.45
2023-05-10T14:20:16.570Z,2.30
2023-05-10T14:23:20.824Z,2.58
2023-05-10T14:26:25.642Z,2.17
2023-05-10T14:29:29.480Z,2.22
2023-05-10T14:32:33.047Z,2.05
2023-05-10T14:35:36.178Z,2.28
2023-05-10T14:38:39.130Z,2.08
2023-05-10T14:41:45.737Z,2.35
2023-05-10T14:44:48.893Z,2.33
2023-05-10T14:47:52.376Z,1.60
2023-05-10T14:50:55.481Z,1.90
2023-05-10T14:53:58.480Z,1.98
2023-05-10T14:57:03.621Z,2.30
2023-05-10T15:00:08.188Z,1.92
2023-05-10T15:03:11.884Z,2.13
2023-05-10T15:06:16.231Z,2.47
2023-05-10T15:09:19.294Z,2.25
2023-05-10T15:12:23.894Z,2.45
2023-05-10T15:15:26.944Z,2.10
2023-05-10T15:18:30.003Z,2.80
2023-05-10T15:21:39.563Z,1.95
2023-05-10T15:24:42.570Z,2.58
2023-05-10T15:27:46.902Z,2.08
2023-05-10T15:30:50.904Z,2.47
2023-05-10T15:33:54.390Z,2.25
2023-05-10T15:36:57.432Z,2.00
2023-05-10T15:40:04.691Z,2.00
2023-05-10T15:43:09.280Z,2.35
2023-05-10T15:46:12.648Z,1.98
2023-05-10T15:49:15.679Z,2.23
2023-05-10T15:52:19.146Z,2.28
2023-05-10T15:57:05.655Z,1.67
2023-05-10T16:00:10.087Z,1.92
2023-05-10T16:03:13.919Z,2.13
2023-05-10T16:06:17.315Z,2.08
2023-05-10T16:09:20.344Z,2.10
2023-05-10T16:12:24.889Z,2.40
2023-05-10T16:15:28.068Z,2.10
2023-05-10T16:18:31.302Z,2.28
2023-05-10T16:21:35.416Z,2.07
2023-05-10T16:24:38.422Z,2.15
2023-05-10T16:27:43.146Z,2.47
2023-05-10T16:30:47.573Z,2.03
2023-05-10T16:33:50.658Z,2.35
2023-05-10T16:36:53.772Z,2.15
2023-05-10T16:40:21.045Z,2.10
2023-05-10T16:43:26.023Z,1.63
2023-05-10T16:46:29.589Z,2.08
2023-05-10T16:49:32.711Z,1.97
2023-05-10T16:52:37.362Z,2.20
2023-05-10T16:55:42.162Z,2.40
2023-05-10T16:58:45.256Z,2.25
2023-05-10T17:01:48.405Z,2.22
2023-05-10T17:04:53.075Z,2.08
2023-05-10T17:07:56.374Z,2.25
2023-05-10T17:11:04.388Z,2.13
2023-05-10T17:14:07.667Z,1.90
2023-05-10T17:17:11.201Z,2.50
2023-05-10T17:20:14.533Z,2.22
2023-05-10T17:23:17.549Z,2.37
2023-05-10T17:26:22.309Z,2.03
2023-05-10T17:29:25.626Z,1.90
2023-05-10T17:32:28.957Z,2.00
2023-05-10T17:35:32.379Z,2.00
2023-05-10T17:38:37.057Z,2.10
2023-05-10T17:41:41.861Z,1.70
2023-05-10T17:44:45.147Z,1.75
2023-05-10T17:47:48.513Z,1.83
2023-05-10T17:50:51.944Z,2.10
2023-05-10T17:53:55.049Z,2.50
2023-05-10T17:57:01.035Z,1.90
2023-05-10T18:00:06.326Z,2.53
2023-05-10T18:03:09.622Z,2.17
2023-05-10T18:06:12.989Z,2.30
2023-05-10T18:09:17.800Z,2.33
2023-05-10T18:12:22.244Z,2.17
2023-05-10T18:15:25.369Z,2.00
2023-05-10T18:18:28.681Z,2.13
2023-05-10T18:21:32.791Z,2.40
2023-05-10T18:24:39.615Z,2.00
2023-05-10T18:27:45.683Z,2.13
2023-05-10T18:30:48.858Z,1.98
2023-05-10T18:33:51.904Z,2.03
2023-05-10T18:36:55.124Z,2.60
2023-05-10T18:39:58.188Z,2.22
2023-05-10T18:43:03.560Z,2.40
2023-05-10T18:46:06.923Z,2.53
2023-05-10T18:49:10.037Z,2.27
2023-05-10T18:52:14.021Z,2.17
2023-05-10T18:55:18.081Z,2.08
2023-05-10T19:01:26.208Z,2.33
2023-05-10T19:04:29.566Z,2.30
2023-05-10T19:07:32.759Z,2.23
2023-05-10T19:10:35.725Z,2.17
2023-05-10T19:13:40.393Z,1.95
2023-05-10T19:16:43.525Z,2.42
2023-05-10T19:19:47.521Z,2.20
2023-05-10T19:23:08.555Z,2.03
2023-05-10T19:26:13.710Z,1.98
2023-05-10T19:29:18.180Z,1.92
2023-05-10T19:32:23.805Z,1.88
2023-05-10T19:35:26.982Z,1.98
2023-05-10T19:38:30.457Z,1.77
2023-05-10T19:41:33.633Z,2.40
2023-05-10T19:44:38.355Z,2.00
2023-05-10T19:47:41.959Z,2.20
2023-05-10T19:50:45.294Z,2.17
2023-05-10T19:53:48.362Z,2.30
2023-05-10T19:56:51.568Z,2.50
2023-05-10T19:59:56.092Z,2.25
2023-05-10T20:02:59.637Z,2.63
2023-05-10T20:06:02.773Z,2.28
2023-05-10T20:09:06.224Z,2.22
2023-05-10T20:12:09.418Z,1.80
2023-05-10T20:15:14.114Z,2.10
2023-05-10T20:18:17.654Z,1.90
2023-05-10T20:21:22.282Z,1.70
2023-05-10T20:24:25.725Z,2.17
2023-05-10T20:27:28.754Z,2.50
2023-05-10T20:30:33.173Z,2.90
2023-05-10T20:33:37.169Z,2.75
2023-05-10T20:39:43.114Z,2.85
2023-05-10T20:42:46.392Z,3.15
2023-05-10T20:45:51.378Z,2.13
2023-05-10T20:48:54.845Z,2.22
2023-05-10T20:51:58.445Z,2.33
2023-05-10T20:55:01.572Z,1.67
2023-05-10T20:58:05.237Z,2.75
2023-05-10T21:01:09.710Z,2.50
2023-05-10T21:04:12.979Z,3.03
2023-05-10T21:07:16.060Z,2.70
2023-05-10T21:10:19.320Z,2.60
2023-05-10T21:13:22.640Z,3.33
2023-05-10T21:16:27.136Z,3.40
2023-05-10T21:19:30.295Z,2.80
2023-05-10T21:22:33.622Z,2.65
2023-05-10T21:25:37.557Z,2.50
2023-05-10T21:28:42.671Z,3.03
2023-05-10T21:31:47.019Z,2.63
2023-05-10T21:34:50.126Z,2.42
2023-05-10T21:37:53.263Z,2.40
2023-05-10T21:40:56.647Z,2.77
2023-05-10T21:43:59.705Z,2.67
2023-05-10T21:47:06.094Z,2.63
2023-05-10T21:50:10.294Z,2.75
2023-05-10T21:53:13.941Z,2.65
2023-05-10T21:56:17.391Z,2.45
2023-05-10T21:59:21.411Z,2.43
2023-05-10T22:02:26.248Z,2.90
2023-05-10T22:05:29.302Z,2.67
2023-05-10T22:08:32.243Z,2.58
2023-05-10T22:11:35.284Z,2.65
2023-05-10T22:14:38.310Z,2.47
2023-05-10T22:17:42.651Z,2.50
2023-05-10T22:20:46.424Z,2.55
2023-05-10T22:23:49.409Z,2.30
2023-05-10T22:26:54.874Z,2.63
2023-05-10T22:29:57.953Z,2.80
2023-05-10T22:33:02.563Z,2.72
2023-05-10T22:36:06.533Z,2.45
2023-05-10T22:39:09.542Z,2.83
2023-05-10T22:42:12.540Z,2.72
2023-05-10T22:45:15.598Z,2.58
2023-05-10T22:48:20.918Z,2.92
2023-05-10T22:51:24.092Z,2.60
2023-05-10T22:54:27.401Z,2.80
2023-05-10T22:57:30.591Z,2.53
2023-05-10T23:00:35.154Z,2.70
2023-05-10T23:03:39.876Z,2.60
2023-05-10T23:06:42.972Z,2.90
2023-05-10T23:09:46.080Z,2.97
2023-05-10T23:12:49.329Z,3.13
2023-05-10T23:15:52.417Z,2.55
2023-05-10T23:18:57.231Z,2.92
2023-05-10T23:22:00.607Z,2.88
2023-05-10T23:25:03.610Z,3.05
2023-05-10T23:28:06.941Z,2.55
2023-05-10T23:31:10.041Z,3.00
2023-05-10T23:34:14.432Z,2.83
2023-05-10T23:37:18.306Z,2.88
2023-05-10T23:40:21.335Z,3.30
2023-05-10T23:43:25.278Z,2.90
2023-05-10T23:46:28.442Z,2.85
2023-05-10T23:49:32.934Z,2.63
2023-05-10T23:52:36.235Z,2.95
2023-05-10T23:55:39.447Z,2.90
2023-05-10T23:58:42.731Z,2.97
